Time;durP1;ratioP1;P1;durP2;ratioP2;P2;SDS_P1;SDS_P2;PMS_P1;PMS_P2;Temp;Humidity;BMP_temperature;BMP_pressure;BME280_temperature;BME280_humidity;BME280_pressure;Samples;Min_cycle;Max_cycle;Signal;HPM_P1;HPM_P2
2022/11/18 00:01:11;;;;;;;11.48;7.65;;;;;;;7.12;100.00;162426.53;5070489;28;20112;-61
2022/11/18 00:03:38;;;;;;;11.50;7.43;;;;;;;7.19;100.00;162445.38;5069394;28;20137;-61
2022/11/18 00:06:04;;;;;;;10.00;6.35;;;;;;;7.26;100.00;162464.22;5070447;28;20107;-61
2022/11/18 00:08:30;;;;;;;7.55;6.07;;;;;;;7.26;100.00;162464.22;5069310;28;20086;-61
2022/11/18 00:10:55;;;;;;;9.23;6.65;;;;;;;7.33;100.00;162480.44;5071334;28;20024;-61
2022/11/18 00:16:10;;;;;;;16.83;6.32;;;;;;;7.44;100.00;162510.06;5070617;28;20040;-61
2022/11/18 00:18:36;;;;;;;12.95;6.97;;;;;;;7.46;100.00;162516.78;5069168;28;20073;-61
2022/11/18 00:21:07;;;;;;;12.35;8.75;;;;;;;7.49;100.00;162522.19;5070868;28;20020;-61
2022/11/18 00:23:32;;;;;;;11.95;6.72;;;;;;;7.58;100.00;162547.75;5068931;28;20102;-61
2022/11/18 00:26:08;;;;;;;7.95;5.47;;;;;;;7.65;100.00;162563.94;5070812;28;20055;-61
2022/11/18 00:28:34;;;;;;;11.00;6.05;;;;;;;7.71;100.00;162580.09;5069213;28;20044;-62
2022/11/18 00:31:02;;;;;;;13.10;6.50;;;;;;;7.69;100.00;162574.72;5070120;28;20402;-63
2022/11/18 00:33:27;;;;;;;13.40;6.60;;;;;;;7.79;100.00;162601.66;5069208;28;20052;-63
2022/11/18 00:35:53;;;;;;;12.48;6.57;;;;;;;7.81;100.00;162607.06;5070713;28;20112;-63
2022/11/18 00:38:19;;;;;;;15.02;6.35;;;;;;;7.86;100.00;162619.19;5069154;28;20040;-63
2022/11/18 00:40:44;;;;;;;14.63;8.07;;;;;;;7.89;100.00;162628.63;5070165;28;20510;-63
2022/11/18 00:43:09;;;;;;;16.02;6.53;;;;;;;7.89;100.00;162628.63;5068853;28;20044;-63
2022/11/18 00:45:35;;;;;;;15.18;7.03;;;;;;;7.92;100.00;162636.72;5070353;28;20032;-63
2022/11/18 00:48:01;;;;;;;11.60;6.97;;;;;;;7.99;100.00;162652.88;5069020;28;20045;-62
2022/11/18 00:50:27;;;;;;;10.13;5.88;;;;;;;8.02;100.00;162662.31;5069636;28;20432;-62
2022/11/18 00:52:52;;;;;;;8.73;6.13;;;;;;;7.98;100.00;162650.19;5068833;28;20024;-62
2022/11/18 00:55:17;;;;;;;10.10;6.40;;;;;;;8.03;100.00;162663.63;5070473;28;20028;-62
2022/11/18 00:57:43;;;;;;;7.90;5.97;;;;;;;8.02;100.00;162660.94;5068680;28;20048;-62
2022/11/18 01:00:08;;;;;;;14.38;6.32;;;;;;;8.08;100.00;162677.09;5070367;28;20467;-62
2022/11/18 01:02:34;;;;;;;10.75;6.15;;;;;;;8.12;100.00;162687.91;5069052;28;20036;-62
2022/11/18 01:04:59;;;;;;;11.15;5.55;;;;;;;8.16;100.00;162697.34;5069956;28;20025;-62
2022/11/18 01:07:25;;;;;;;11.82;5.82;;;;;;;8.20;100.00;162708.09;5068411;28;20045;-61
2022/11/18 01:09:50;;;;;;;7.55;6.20;;;;;;;8.17;100.00;162701.38;5070382;28;20364;-61
2022/11/18 01:14:59;;;;;;;9.88;6.70;;;;;;;8.20;100.00;162708.09;5069424;28;20105;-61
2022/11/18 01:17:24;;;;;;;11.07;5.50;;;;;;;8.18;100.00;162704.06;5069000;28;20570;-61
2022/11/18 01:19:50;;;;;;;9.88;5.65;;;;;;;8.19;100.00;162705.44;5073755;28;20021;-61
2022/11/18 01:22:15;;;;;;;10.10;5.72;;;;;;;8.14;100.00;162693.31;5072445;28;20036;-61
2022/11/18 01:24:40;;;;;;;8.45;6.07;;;;;;;8.17;100.00;162700.03;5073616;28;20041;-61
2022/11/18 01:27:06;;;;;;;12.68;5.35;;;;;;;8.19;100.00;162706.78;5072955;28;20051;-63
2022/11/18 01:29:31;;;;;;;14.95;7.65;;;;;;;8.15;100.00;162696.00;5073958;28;20032;-63
2022/11/18 01:31:57;;;;;;;8.32;5.38;;;;;;;8.08;100.00;162677.09;5072325;28;20415;-63
2022/11/18 01:34:22;;;;;;;17.05;7.10;;;;;;;8.15;100.00;162694.63;5073942;28;20017;-63
2022/11/18 01:36:47;;;;;;;13.32;6.40;;;;;;;8.16;100.00;162698.66;5072910;28;20471;-60
2022/11/18 01:39:12;;;;;;;7.10;6.18;;;;;;;8.17;100.00;162701.38;5073723;28;20400;-63
2022/11/18 01:41:38;;;;;;;10.05;6.30;;;;;;;8.10;100.00;162682.50;5074050;28;20078;-63
2022/11/18 01:44:25;;;;;;;10.70;5.15;;;;;;;8.08;100.00;162677.09;5071668;28;20055;-63
2022/11/18 01:46:50;;;;;;;18.80;6.25;;;;;;;8.05;100.00;162669.03;5071959;28;20024;-63
2022/11/18 01:49:16;;;;;;;12.02;5.68;;;;;;;8.03;100.00;162663.63;5074036;28;20021;-63
2022/11/18 01:51:50;;;;;;;7.78;5.05;;;;;;;7.96;100.00;162644.78;5073085;28;20510;-63
2022/11/18 01:54:27;;;;;;;7.22;5.35;;;;;;;7.87;100.00;162623.22;5067271;28;20036;-63
2022/11/18 01:56:56;;;;;;;13.85;6.82;;;;;;;7.86;100.00;162620.50;5072063;28;20111;-63
2022/11/18 01:59:26;;;;;;;10.45;6.55;;;;;;;7.89;100.00;162628.63;5072909;28;20094;-63
2022/11/18 02:01:53;;;;;;;14.23;6.03;;;;;;;7.86;100.00;162620.50;5072013;28;20025;-63
2022/11/18 02:04:19;;;;;;;12.02;6.10;;;;;;;7.87;100.00;162623.22;5072835;28;20078;-63
2022/11/18 02:06:45;;;;;;;16.10;6.88;;;;;;;7.88;100.00;162625.91;5072598;28;20025;-63
2022/11/18 02:09:12;;;;;;;11.50;6.13;;;;;;;7.83;100.00;162612.44;5071997;28;20506;-63
2022/11/18 02:11:50;;;;;;;21.83;7.90;;;;;;;7.83;100.00;162612.44;5073478;28;20052;-63
2022/11/18 02:14:18;;;;;;;10.52;6.07;;;;;;;7.83;100.00;162611.06;5051562;28;20037;-62
2022/11/18 02:17:04;;;;;;;9.25;5.80;;;;;;;7.84;100.00;162613.78;5053456;28;20017;-61
2022/11/18 02:19:35;;;;;;;10.27;6.13;;;;;;;7.87;100.00;162621.88;5071660;28;20053;-61
2022/11/18 02:22:13;;;;;;;8.57;6.10;;;;;;;7.84;100.00;162615.16;5071038;28;20048;-61
2022/11/18 02:25:18;;;;;;;8.27;5.75;;;;;;;7.92;100.00;162636.72;5073096;28;20131;-61
2022/11/18 02:28:04;;;;;;;10.75;6.18;;;;;;;7.94;100.00;162640.75;5071022;28;20063;-61
2022/11/18 02:30:34;;;;;;;14.23;6.95;;;;;;;8.01;100.00;162658.22;5072888;28;20033;-61
2022/11/18 02:33:12;;;;;;;11.88;7.38;;;;;;;7.99;100.00;162654.19;5067191;28;20045;-61
2022/11/18 02:35:50;;;;;;;15.00;7.90;;;;;;;8.02;100.00;162660.94;5033237;28;20029;-61
2022/11/18 02:38:23;;;;;;;14.97;7.67;;;;;;;8.02;100.00;162660.94;5050519;28;20044;-61
2022/11/18 02:40:54;;;;;;;9.52;5.63;;;;;;;7.99;100.00;162654.19;5052937;28;20025;-61
2022/11/18 02:43:31;;;;;;;7.10;5.05;;;;;;;8.00;100.00;162655.59;5067040;28;20545;-62
2022/11/18 02:46:08;;;;;;;9.57;5.93;;;;;;;8.06;100.00;162671.75;5072700;28;20025;-61
2022/11/18 02:48:40;;;;;;;9.45;7.22;;;;;;;8.09;100.00;162679.81;5071045;28;20058;-61
2022/11/18 02:51:08;;;;;;;7.72;6.38;;;;;;;8.12;100.00;162687.91;5071303;28;20069;-60
2022/11/18 02:53:35;;;;;;;22.25;8.70;;;;;;;8.12;100.00;162687.91;5072544;28;20491;-60
2022/11/18 02:56:02;;;;;;;8.20;5.95;;;;;;;8.12;100.00;162686.59;5070914;28;20124;-60
2022/11/18 02:58:27;;;;;;;11.23;6.03;;;;;;;8.17;100.00;162701.38;5071821;28;20049;-60
2022/11/18 03:00:54;;;;;;;11.70;6.20;;;;;;;8.15;100.00;162696.00;5072356;28;20356;-60
2022/11/18 03:03:27;;;;;;;9.27;5.38;;;;;;;8.17;100.00;162701.38;5064104;28;20048;-60
2022/11/18 03:06:06;;;;;;;14.85;7.50;;;;;;;8.25;100.00;162721.63;5051965;28;20086;-60
2022/11/18 03:08:48;;;;;;;10.07;6.40;;;;;;;8.22;100.00;162713.50;5070586;28;20603;-60
2022/11/18 03:11:19;;;;;;;10.90;6.40;;;;;;;8.20;100.00;162709.47;5070963;28;20032;-59
2022/11/18 03:14:08;;;;;;;9.05;6.20;;;;;;;8.27;100.00;162726.97;5071330;28;20471;-60
2022/11/18 03:16:49;;;;;;;10.30;5.63;;;;;;;8.32;100.00;162739.09;5070568;28;20136;-60
2022/11/18 03:19:44;;;;;;;9.15;8.10;;;;;;;8.33;100.00;162743.19;5071598;28;20501;-60
2022/11/18 03:22:36;;;;;;;10.07;6.85;;;;;;;8.31;100.00;162737.78;5070810;28;20044;-60
2022/11/18 03:25:08;;;;;;;22.77;8.75;;;;;;;8.36;100.00;162749.91;5054237;28;21668;-60
2022/11/18 03:28:05;;;;;;;8.00;7.20;;;;;;;8.35;100.00;162747.22;5070032;28;20502;-60
2022/11/18 03:30:33;;;;;;;12.27;6.32;;;;;;;8.39;100.00;162759.34;5056579;28;20443;-60
2022/11/18 03:33:04;;;;;;;10.73;5.03;;;;;;;8.40;100.00;162760.69;5066982;28;20037;-60
2022/11/18 03:35:33;;;;;;;10.65;6.65;;;;;;;8.41;100.00;162763.38;5071465;28;20017;-60
2022/11/18 03:38:06;;;;;;;14.60;6.85;;;;;;;8.39;100.00;162757.97;5070183;28;20048;-60
2022/11/18 03:40:34;;;;;;;10.43;6.10;;;;;;;8.24;100.00;162720.25;5071299;28;20643;-62
2022/11/18 03:43:10;;;;;;;21.20;9.40;;;;;;;8.18;100.00;162702.75;5069414;28;20886;-62
2022/11/18 03:45:39;;;;;;;12.35;7.90;;;;;;;8.18;100.00;162704.06;5070983;28;20360;-62
2022/11/18 03:48:14;;;;;;;11.00;7.80;;;;;;;8.07;100.00;162674.44;5070019;28;20037;-62
2022/11/18 03:50:46;;;;;;;15.30;6.25;;;;;;;8.06;100.00;162671.75;5071281;28;20024;-61
2022/11/18 03:53:14;;;;;;;15.32;6.63;;;;;;;8.05;100.00;162670.38;5066878;28;20051;-61
2022/11/18 03:55:43;;;;;;;17.70;7.63;;;;;;;8.05;100.00;162669.03;5070508;28;20035;-61
2022/11/18 03:58:16;;;;;;;13.63;8.55;;;;;;;8.02;100.00;162660.94;5069496;28;20470;-61
2022/11/18 04:00:46;;;;;;;12.57;6.68;;;;;;;7.96;100.00;162646.16;5031377;28;20524;-63
2022/11/18 04:03:12;;;;;;;11.48;8.85;;;;;;;7.92;100.00;162636.72;5048425;28;20052;-63
2022/11/18 04:05:41;;;;;;;11.45;7.65;;;;;;;7.93;100.00;162638.03;5058108;28;20384;-63
2022/11/18 04:08:12;;;;;;;14.50;8.00;;;;;;;7.88;100.00;162625.91;5069319;28;20435;-63
2022/11/18 04:10:48;;;;;;;13.73;8.75;;;;;;;7.82;100.00;162609.75;5071353;28;20052;-63
2022/11/18 04:13:28;;;;;;;14.75;8.88;;;;;;;7.83;100.00;162612.44;5069629;28;20033;-63
2022/11/18 04:15:54;;;;;;;8.50;7.70;;;;;;;7.83;100.00;162612.44;5070628;28;20410;-63
2022/11/18 04:18:20;;;;;;;10.70;7.78;;;;;;;7.82;100.00;162609.75;5069303;28;20044;-63
2022/11/18 04:20:45;;;;;;;19.05;9.85;;;;;;;7.80;100.00;162604.34;5055427;28;20033;-65
2022/11/18 04:23:11;;;;;;;12.48;8.45;;;;;;;7.78;100.00;161722.09;5067862;28;20040;-64
2022/11/18 04:25:36;;;;;;;21.48;10.80;;;;;;;7.81;100.00;159649.81;5070327;28;20040;-64
2022/11/18 04:28:02;;;;;;;16.73;9.35;;;;;;;7.79;100.00;158400.19;5068742;28;20043;-64
2022/11/18 04:30:28;;;;;;;16.58;9.05;;;;;;;7.76;100.00;157255.53;5070878;28;20032;-64
2022/11/18 04:32:53;;;;;;;9.00;8.07;;;;;;;7.76;100.00;155228.31;5069340;28;20047;-63
2022/11/18 04:35:19;;;;;;;13.75;7.55;;;;;;;7.84;100.00;152774.16;5066872;28;20032;-63
2022/11/18 04:37:44;;;;;;;16.83;8.57;;;;;;;7.82;100.00;152067.00;5064289;28;20044;-63
2022/11/18 04:40:10;;;;;;;11.57;8.07;;;;;;;7.80;100.00;151010.28;5070596;28;20032;-64
2022/11/18 04:42:36;;;;;;;15.35;9.65;;;;;;;7.83;100.00;150314.69;5068695;28;20467;-63
2022/11/18 04:45:01;;;;;;;17.60;10.10;;;;;;;7.82;100.00;149962.59;5070344;28;20112;-63
2022/11/18 04:47:27;;;;;;;20.25;9.75;;;;;;;7.77;100.00;149248.63;5069323;28;20041;-63
2022/11/18 04:49:52;;;;;;;15.35;10.10;;;;;;;7.81;100.00;148206.25;5070336;28;20031;-63
2022/11/18 04:52:17;;;;;;;10.32;8.35;;;;;;;7.81;100.00;147504.91;5067553;28;20044;-63
2022/11/18 04:54:43;;;;;;;13.23;9.30;;;;;;;7.81;100.00;147504.91;5074023;28;20597;-63
2022/11/18 04:57:09;;;;;;;18.10;9.32;;;;;;;7.80;100.00;146801.28;5064289;28;20044;-62
2022/11/18 04:59:35;;;;;;;11.40;9.35;;;;;;;7.85;100.00;145410.03;5074850;28;20425;-63
2022/11/18 05:02:00;;;;;;;24.27;10.95;;;;;;;7.82;100.00;144701.97;5072630;28;20041;-63
2022/11/18 05:04:29;;;;;;;16.08;10.80;;;;;;;7.85;100.00;143307.66;5074424;28;20025;-64
2022/11/18 05:06:55;;;;;;;16.52;9.25;;;;;;;7.84;100.00;141905.53;5072531;28;20044;-62
2022/11/18 05:09:21;;;;;;;16.15;9.77;;;;;;;7.94;100.00;140178.06;5074321;28;20024;-62
2022/11/18 05:14:31;;;;;;;19.40;10.27;;;;;;;7.90;100.00;140869.03;5062566;28;20422;-61
2022/11/18 05:16:58;;;;;;;16.42;9.05;;;;;;;7.94;100.00;140178.06;5065836;28;20037;-60
2022/11/18 05:19:24;;;;;;;16.77;10.55;;;;;;;7.93;100.00;140525.84;5074062;28;20035;-60
2022/11/18 05:21:49;;;;;;;13.60;8.98;;;;;;;7.86;100.00;141209.84;5072234;28;20045;-60
2022/11/18 05:24:15;;;;;;;14.25;10.27;;;;;;;7.96;100.00;139481.44;5072883;28;20086;-60
2022/11/18 05:26:40;;;;;;;19.55;11.07;;;;;;;7.91;100.00;139821.09;5072082;28;20124;-60
2022/11/18 05:29:05;;;;;;;16.05;9.23;;;;;;;7.93;100.00;139124.50;5074080;28;20032;-60
2022/11/18 05:31:31;;;;;;;12.88;9.65;;;;;;;7.91;100.00;138771.09;5072857;28;20036;-60
2022/11/18 05:33:57;;;;;;;16.10;10.43;;;;;;;7.89;100.00;138416.56;5073773;28;20070;-60
2022/11/18 05:36:22;;;;;;;16.30;7.95;;;;;;;7.93;100.00;137725.88;5072195;28;20040;-60
2022/11/18 05:38:48;;;;;;;13.80;9.25;;;;;;;7.90;100.00;138418.88;5070202;28;20043;-60
2022/11/18 05:43:09;;;;;;;14.75;10.95;;;;;;;7.84;100.00;139804.97;5065782;28;20502;-60
2022/11/18 05:43:59;;;;;;;11.50;8.52;;;;;;;7.76;100.00;140836.53;5072524;28;20040;-60
2022/11/18 05:46:25;;;;;;;17.17;9.27;;;;;;;7.76;100.00;140486.50;5071925;28;20032;-60
2022/11/18 05:48:50;;;;;;;15.07;10.68;;;;;;;7.73;100.00;140479.53;5073070;28;20028;-60
2022/11/18 05:51:16;;;;;;;11.38;9.48;;;;;;;7.69;100.00;140120.31;5072442;28;20041;-60
2022/11/18 05:53:41;;;;;;;14.07;9.48;;;;;;;7.67;100.00;139417.00;5073678;28;20028;-60
2022/11/18 05:56:17;;;;;;;15.73;10.30;;;;;;;7.68;100.00;138718.47;5072086;28;20052;-61
2022/11/18 05:58:43;;;;;;;12.68;10.38;;;;;;;7.66;100.00;137665.75;5073184;28;20048;-62
2022/11/18 06:01:09;;;;;;;14.35;10.70;;;;;;;7.63;100.00;136960.69;5072101;28;20036;-61
2022/11/18 06:03:39;;;;;;;16.30;9.80;;;;;;;7.60;100.00;136254.75;5072857;28;20387;-60
2022/11/18 06:06:07;;;;;;;17.75;11.43;;;;;;;7.56;100.00;135197.25;5072202;28;20052;-59
2022/11/18 06:08:48;;;;;;;21.30;11.48;;;;;;;7.63;100.00;133813.97;5073447;28;20020;-61
2022/11/18 06:11:17;;;;;;;11.38;9.88;;;;;;;7.59;100.00;133106.53;5071720;28;21113;-59
2022/11/18 06:14:01;;;;;;;17.33;12.90;;;;;;;7.58;100.00;132405.81;5073175;28;20028;-59
2022/11/18 06:16:29;;;;;;;20.38;10.45;;;;;;;7.62;100.00;131716.06;5071857;28;20498;-59
2022/11/18 06:18:54;;;;;;;12.93;9.87;;;;;;;7.58;100.00;131358.25;5073007;28;20027;-59
2022/11/18 06:21:20;;;;;;;18.10;11.18;;;;;;;7.53;100.00;131696.53;5071833;28;20120;-59
2022/11/18 06:23:45;;;;;;;18.38;12.35;;;;;;;7.51;100.00;131344.19;5073125;28;20028;-59
2022/11/18 06:26:14;;;;;;;17.63;13.88;;;;;;;7.49;100.00;130990.78;5071376;28;20040;-59
2022/11/18 06:28:40;;;;;;;17.13;12.75;;;;;;;7.48;100.00;129941.63;5073122;28;20478;-59
2022/11/18 06:31:06;;;;;;;17.73;11.40;;;;;;;7.48;100.00;128545.97;5071800;28;20087;-59
2022/11/18 06:33:31;;;;;;;23.35;12.52;;;;;;;7.50;100.00;127153.94;5072754;28;20020;-59
2022/11/18 06:35:56;;;;;;;16.80;12.63;;;;;;;7.54;100.00;125419.91;5071359;28;20498;-58
2022/11/18 06:38:25;;;;;;;15.85;12.50;;;;;;;7.53;100.00;125069.25;5073172;28;20453;-59
2022/11/18 06:40:51;;;;;;;20.88;13.13;;;;;;;7.52;100.00;124369.09;5072799;28;20390;-59
2022/11/18 06:48:46;;;;;;;17.20;11.82;;;;;;;7.57;100.00;125076.44;5072704;28;20036;-59
2022/11/18 06:51:12;;;;;;;19.35;14.75;;;;;;;7.57;100.00;125773.69;5071514;28;20028;-59
2022/11/18 06:53:37;;;;;;;20.15;12.05;;;;;;;7.55;100.00;126467.97;5072468;28;20025;-59
2022/11/18 06:56:04;;;;;;;15.13;13.32;;;;;;;7.56;100.00;127167.50;5071066;28;20033;-59
2022/11/18 06:58:30;;;;;;;17.92;13.68;;;;;;;7.53;100.00;127858.84;5072366;28;20041;-59
2022/11/18 07:00:55;;;;;;;22.35;13.65;;;;;;;7.52;100.00;127855.69;5070708;28;20029;-58
2022/11/18 07:03:20;;;;;;;15.85;14.25;;;;;;;7.55;100.00;127514.25;5072289;28;20086;-59
2022/11/18 07:05:45;;;;;;;21.02;16.02;;;;;;;7.36;100.00;127474.38;5072575;28;20021;-59
2022/11/18 07:08:11;;;;;;;23.92;14.95;;;;;;;7.52;100.00;126460.69;5070894;28;20380;-59
2022/11/18 07:10:36;;;;;;;24.98;15.13;;;;;;;7.46;100.00;126100.59;5072089;28;20052;-59
2022/11/18 07:13:02;;;;;;;20.40;14.70;;;;;;;7.47;100.00;124708.38;5070690;28;20037;-59
2022/11/18 07:15:27;;;;;;;18.45;13.52;;;;;;;7.51;100.00;122974.22;5071845;28;20027;-59
2022/11/18 07:17:52;;;;;;;19.02;15.00;;;;;;;7.51;100.00;121929.19;5063840;28;20411;-59
2022/11/18 07:20:17;;;;;;;19.25;15.77;;;;;;;7.55;100.00;120543.13;5071843;28;20024;-59
2022/11/18 07:22:43;;;;;;;16.38;14.23;;;;;;;7.52;100.00;120190.00;5070374;28;20040;-59
2022/11/18 07:25:09;;;;;;;21.55;17.40;;;;;;;7.51;100.00;119143.69;5071572;28;20024;-59
2022/11/18 07:27:34;;;;;;;20.08;18.08;;;;;;;7.56;100.00;118109.31;5070628;28;20040;-59
2022/11/18 07:29:59;;;;;;;23.92;17.27;;;;;;;7.56;100.00;117760.38;5071614;28;20085;-59
2022/11/18 07:32:25;;;;;;;18.38;15.70;;;;;;;7.57;100.00;116718.50;5070131;28;20044;-59
2022/11/18 07:34:50;;;;;;;24.65;16.90;;;;;;;7.57;100.00;116022.75;5071646;28;20025;-59
2022/11/18 07:37:15;;;;;;;25.08;16.88;;;;;;;7.61;100.00;114986.91;5070195;28;20483;-59
2022/11/18 07:39:41;;;;;;;28.80;17.98;;;;;;;7.60;100.00;114637.28;5071186;28;20032;-59
2022/11/18 07:42:08;;;;;;;24.45;17.55;;;;;;;7.61;100.00;113943.75;5070370;28;20045;-59
2022/11/18 07:44:33;;;;;;;32.05;19.02;;;;;;;7.62;100.00;112903.66;5071653;28;20383;-59
2022/11/18 07:46:58;;;;;;;22.10;18.08;;;;;;;7.61;100.00;112205.72;5069617;28;20039;-59
2022/11/18 07:49:24;;;;;;;21.42;16.65;;;;;;;7.62;100.00;111513.50;5071228;28;20414;-59
2022/11/18 07:51:49;;;;;;;21.75;18.65;;;;;;;7.65;100.00;110822.19;5069997;28;20040;-59
2022/11/18 07:54:15;;;;;;;17.52;15.52;;;;;;;7.67;100.00;110131.00;5070166;28;20383;-59
2022/11/18 07:56:41;;;;;;;22.40;18.75;;;;;;;7.61;100.00;109426.44;5069570;28;20037;-59
2022/11/18 07:59:07;;;;;;;21.73;18.77;;;;;;;7.67;100.00;108741.69;5071331;28;20120;-59
2022/11/18 08:01:33;;;;;;;20.83;17.88;;;;;;;7.65;100.00;108391.78;5068881;28;20186;-59
2022/11/18 08:04:10;;;;;;;19.77;17.00;;;;;;;7.67;100.00;108047.22;5070882;28;20115;-59
2022/11/18 08:06:38;;;;;;;22.70;18.00;;;;;;;7.66;100.00;107698.25;5070208;28;20048;-59
2022/11/18 08:09:04;;;;;;;23.85;20.00;;;;;;;7.68;100.00;107355.47;5070624;28;20032;-59
2022/11/18 08:11:30;;;;;;;23.60;17.85;;;;;;;7.66;100.00;107003.97;5069823;28;20057;-59
2022/11/18 08:13:55;;;;;;;27.42;20.20;;;;;;;7.68;100.00;106660.38;5070845;28;20088;-59
2022/11/18 08:16:23;;;;;;;23.83;17.35;;;;;;;7.71;100.00;106666.47;5069304;28;20032;-59
2022/11/18 08:18:49;;;;;;;21.60;17.87;;;;;;;7.68;100.00;107354.63;5071107;28;20044;-59
2022/11/18 08:21:16;;;;;;;67.05;22.88;;;;;;;7.71;100.00;107359.88;5069643;28;20048;-59
2022/11/18 08:23:42;;;;;;;18.50;16.20;;;;;;;7.73;100.00;107364.28;5070359;28;20080;-59
2022/11/18 08:26:13;;;;;;;24.00;18.70;;;;;;;7.66;100.00;108392.66;5070159;28;20432;-59
2022/11/18 08:28:41;;;;;;;34.30;22.05;;;;;;;7.62;100.00;108734.59;5070767;28;20059;-59
2022/11/18 08:31:32;;;;;;;26.98;18.88;;;;;;;7.69;100.00;108398.88;5068129;28;20267;-59
2022/11/18 08:34:03;;;;;;;31.63;21.67;;;;;;;7.68;100.00;109090.75;5069555;28;20487;-59
2022/11/18 08:36:34;;;;;;;26.65;19.33;;;;;;;7.69;100.00;108398.88;5069554;28;20081;-59
2022/11/18 08:39:01;;;;;;;27.50;20.95;;;;;;;7.77;100.00;108064.91;5070438;28;20063;-59
2022/11/18 08:41:40;;;;;;;24.02;20.83;;;;;;;7.83;100.00;106686.50;5069385;28;20037;-59
2022/11/18 08:44:06;;;;;;;23.38;19.63;;;;;;;7.93;100.00;105315.19;5070813;28;20064;-59
2022/11/18 08:46:32;;;;;;;31.35;22.13;;;;;;;7.98;100.00;104280.78;5069180;28;20097;-59
2022/11/18 08:48:58;;;;;;;29.95;22.25;;;;;;;7.96;100.00;104624.44;5070585;28;20024;-59
2022/11/18 08:51:23;;;;;;;21.65;19.05;;;;;;;8.00;100.00;104632.13;5069227;28;20124;-59
2022/11/18 08:53:48;;;;;;;23.67;19.20;;;;;;;8.01;100.00;105328.13;5070285;28;20024;-59
2022/11/18 08:56:16;;;;;;;25.83;19.05;;;;;;;8.08;100.00;105686.50;5069259;28;20056;-59
2022/11/18 08:58:42;;;;;;;24.07;21.03;;;;;;;8.10;100.00;106037.22;5070437;28;20100;-59
2022/11/18 09:01:08;;;;;;;24.38;20.65;;;;;;;8.16;100.00;106046.75;5068974;28;20029;-59
2022/11/18 09:03:34;;;;;;;23.73;18.85;;;;;;;8.23;100.00;105364.22;5070572;28;20356;-59
2022/11/18 09:06:10;;;;;;;25.20;20.30;;;;;;;8.32;100.00;104684.22;5069001;28;20039;-59
2022/11/18 09:08:35;;;;;;;23.77;19.50;;;;;;;8.42;100.00;103659.44;5070195;28;20546;-59
2022/11/18 09:11:09;;;;;;;23.45;19.98;;;;;;;8.44;100.00;103315.56;5068869;28;20040;-59
2022/11/18 09:13:35;;;;;;;21.35;19.15;;;;;;;8.52;100.00;103329.09;5070325;28;20534;-59
2022/11/18 09:16:01;;;;;;;20.48;16.67;;;;;;;8.53;100.00;104372.72;5068401;28;20082;-59
2022/11/18 09:18:28;;;;;;;19.83;17.75;;;;;;;8.60;100.00;105078.69;5070708;28;20077;-59
2022/11/18 09:20:58;;;;;;;20.65;17.80;;;;;;;8.67;100.00;106132.53;5070192;28;20059;-59
2022/11/18 09:23:23;;;;;;;23.15;17.98;;;;;;;8.74;100.00;107883.22;5065035;28;20446;-59
2022/11/18 09:26:09;;;;;;;19.15;17.15;;;;;;;8.79;100.00;110675.50;5066810;28;20020;-59
2022/11/18 09:28:35;;;;;;;25.92;19.40;;;;;;;8.81;100.00;113116.34;5068975;28;20498;-59
2022/11/18 09:31:08;;;;;;;25.17;18.15;;;;;;;8.78;100.00;115897.81;5068233;28;20028;-59
2022/11/18 09:33:34;;;;;;;27.23;17.30;;;;;;;8.87;100.00;116959.69;5070303;28;20364;-59
2022/11/18 09:35:59;;;;;;;27.25;18.80;;;;;;;8.92;100.00;118363.19;5068945;28;20025;-59
2022/11/18 09:38:27;;;;;;;19.80;17.65;;;;;;;9.03;100.00;119431.22;5060859;28;20032;-59
2022/11/18 09:41:10;;;;;;;18.60;16.70;;;;;;;9.12;100.00;120494.94;5053330;28;20033;-59
2022/11/18 09:43:51;;;;;;;29.35;16.55;;;;;;;9.12;100.00;122240.69;5032591;28;20045;-59
2022/11/18 09:46:53;;;;;;;23.27;15.98;;;;;;;9.18;100.00;123649.97;5032704;28;20037;-59
2022/11/18 09:49:31;;;;;;;26.25;19.00;;;;;;;9.25;100.00;125760.19;5033131;28;20048;-59
2022/11/18 09:52:01;;;;;;;21.00;17.25;;;;;;;9.27;100.00;127512.75;5042574;28;20060;-59
2022/11/18 09:54:33;;;;;;;18.90;16.90;;;;;;;9.31;100.00;129270.38;5053493;28;20100;-59
2022/11/18 09:56:59;;;;;;;18.98;15.82;;;;;;;9.43;100.00;129995.91;5051899;28;20118;-59
2022/11/18 09:59:27;;;;;;;21.92;18.20;;;;;;;9.52;100.00;130714.34;5053134;28;20053;-59
2022/11/18 10:02:07;;;;;;;25.48;17.42;;;;;;;9.64;100.00;131089.28;5051683;28;20033;-59
2022/11/18 10:04:32;;;;;;;17.90;15.95;;;;;;;9.75;100.00;132163.03;5053742;28;20028;-59
2022/11/18 10:06:57;;;;;;;17.33;15.50;;;;;;;9.72;100.00;136012.72;5051628;28;20033;-59
2022/11/18 10:09:36;;;;;;;22.75;16.50;;;;;;;9.90;100.00;138157.41;5053396;28;20029;-59
2022/11/18 10:12:21;;;;;;;19.88;14.90;;;;;;;10.07;100.00;139249.53;5051911;28;20057;-59
2022/11/18 10:15:16;;;;;;;17.75;14.30;;;;;;;10.34;100.00;141769.31;5053257;28;20029;-59
2022/11/18 10:17:53;;;;;;;19.63;14.23;;;;;;;10.55;100.00;147094.72;5052118;28;20044;-59
2022/11/18 10:20:19;;;;;;;17.45;13.48;;;;;;;10.70;100.00;157987.22;5053535;28;20025;-59
2022/11/18 10:22:54;;;;;;;20.40;12.55;;;;;;;10.87;100.00;163405.59;5051402;28;20460;-59
2022/11/18 10:25:20;;;;;;;16.25;10.55;;;;;;;10.93;100.00;163421.78;5053295;28;20107;-59
2022/11/18 10:27:48;;;;;;;13.30;9.38;;;;;;;10.85;100.00;163400.19;5051745;28;20129;-59
2022/11/18 10:30:15;;;;;;;14.97;9.23;;;;;;;10.85;100.00;163400.19;5053058;28;20025;-59
2022/11/18 10:33:00;;;;;;;16.10;10.05;;;;;;;10.83;100.00;163394.81;5051510;28;20452;-59
2022/11/18 10:35:37;;;;;;;13.50;9.02;;;;;;;10.97;100.00;163432.63;5053402;28;20025;-59
2022/11/18 10:38:13;;;;;;;11.63;9.10;;;;;;;11.06;100.00;163455.56;5051295;28;20036;-59
2022/11/18 10:40:51;;;;;;;13.40;7.18;;;;;;;11.31;100.00;163521.72;5053207;28;20028;-59
2022/11/18 10:43:49;;;;;;;6.87;4.97;;;;;;;11.39;100.00;163543.31;5051253;28;20041;-59
2022/11/18 10:46:27;;;;;;;10.05;6.90;;;;;;;11.69;100.00;163621.66;5051539;28;20045;-59
2022/11/18 10:49:07;;;;;;;8.40;4.85;;;;;;;12.30;100.00;163781.13;5052464;28;20541;-59
2022/11/18 10:51:32;;;;;;;10.68;6.07;;;;;;;12.63;100.00;163866.25;5049702;28;20098;-59
2022/11/18 10:54:28;;;;;;;8.80;5.05;;;;;;;12.76;100.00;163900.06;5052683;28;20032;-59
2022/11/18 10:57:14;;;;;;;9.52;5.63;;;;;;;12.90;100.00;163937.91;5050858;28;20037;-59
2022/11/18 10:59:56;;;;;;;9.57;4.75;;;;;;;12.55;100.00;163845.97;5052482;28;20037;-59
2022/11/18 11:02:29;;;;;;;5.57;4.60;;;;;;;12.68;100.00;163881.13;5051178;28;20052;-59
2022/11/18 11:04:56;;;;;;;7.43;4.63;;;;;;;12.66;100.00;163875.72;5052537;28;20029;-59
2022/11/18 11:07:35;;;;;;;11.02;4.88;;;;;;;12.35;100.00;163794.63;5050687;28;20037;-59
2022/11/18 11:10:03;;;;;;;5.80;5.18;;;;;;;12.10;100.00;163727.09;5051203;28;20032;-59
2022/11/18 11:12:32;;;;;;;8.27;5.53;;;;;;;11.96;100.00;163690.56;5063104;28;20146;-59
2022/11/18 11:15:03;;;;;;;7.18;5.55;;;;;;;11.85;100.00;163663.50;5071384;28;20028;-59
2022/11/18 11:17:38;;;;;;;10.73;6.55;;;;;;;11.71;100.00;163627.06;5069371;28;20132;-59
2022/11/18 11:20:15;;;;;;;7.00;5.85;;;;;;;11.57;100.00;163589.25;5071459;28;20391;-59
2022/11/18 11:22:41;;;;;;;9.82;5.68;;;;;;;11.61;100.00;163600.03;5069997;28;20050;-59
2022/11/18 11:25:32;;;;;;;11.32;6.25;;;;;;;12.00;100.00;163701.38;5071448;28;20028;-58
2022/11/18 11:28:07;;;;;;;6.50;4.93;;;;;;;12.28;100.00;163774.38;5069068;28;20055;-59
2022/11/18 11:30:46;;;;;;;14.95;5.40;;;;;;;12.60;100.00;163858.13;5060629;28;20082;-61
2022/11/18 11:33:20;;;;;;;10.82;5.32;;;;;;;12.84;100.00;163921.69;5052519;28;20062;-59
2022/11/18 11:35:56;;;;;;;7.55;4.72;;;;;;;12.83;100.00;163918.97;5071073;28;20032;-59
2022/11/18 11:38:43;;;;;;;15.73;6.65;;;;;;;12.70;100.00;163886.50;5070326;28;20188;-58
2022/11/18 11:41:21;;;;;;;19.35;7.95;;;;;;;12.41;100.00;163809.50;5070353;28;20482;-59